sensor_id;sensor_type;location;lat;lon;timestamp;P1;durP1;ratioP1;P2;durP2;ratioP2
78901;SDS011;70441;44.758;37.686;2024-01-15T00:00:01;8.20;;;2.38;;
78901;SDS011;70441;44.758;37.686;2024-01-15T00:01:12;7.40;;;2.22;;
78901;SDS011;70441;44.758;37.686;2024-01-15T00:02:14;6.32;;;1.85;;
78901;SDS011;70441;44.758;37.686;2024-01-15T00:03:16;4.97;;;1.63;;
78901;SDS011;70441;44.758;37.686;2024-01-15T00:04:18;7.57;;;2.40;;
78901;SDS011;70441;44.758;37.686;2024-01-15T00:05:19;6.43;;;2.05;;
78901;SDS011;70441;44.758;37.686;2024-01-15T00:06:21;6.53;;;2.17;;
78901;SDS011;70441;44.758;37.686;2024-01-15T00:07:23;6.45;;;2.08;;
78901;SDS011;70441;44.758;37.686;2024-01-15T00:08:24;4.18;;;1.67;;
78901;SDS011;70441;44.758;37.686;2024-01-15T00:09:44;8.73;;;2.67;;
78901;SDS011;70441;44.758;37.686;2024-01-15T00:10:46;6.75;;;2.25;;
78901;SDS011;70441;44.758;37.686;2024-01-15T00:11:48;6.22;;;2.42;;
78901;SDS011;70441;44.758;37.686;2024-01-15T00:14:09;5.70;;;1.83;;
78901;SDS011;70441;44.758;37.686;2024-01-15T00:15:11;6.95;;;2.40;;
78901;SDS011;70441;44.758;37.686;2024-01-15T00:16:13;5.68;;;2.03;;
78901;SDS011;70441;44.758;37.686;2024-01-15T00:17:15;8.18;;;2.60;;
78901;SDS011;70441;44.758;37.686;2024-01-15T00:18:16;8.27;;;2.13;;
78901;SDS011;70441;44.758;37.686;2024-01-15T00:19:18;5.28;;;2.13;;
78901;SDS011;70441;44.758;37.686;2024-01-15T00:20:20;8.50;;;3.05;;
78901;SDS011;70441;44.758;37.686;2024-01-15T00:21:21;8.82;;;2.53;;
78901;SDS011;70441;44.758;37.686;2024-01-15T00:22:24;9.70;;;2.60;;
78901;SDS011;70441;44.758;37.686;2024-01-15T00:23:27;8.00;;;2.60;;
78901;SDS011;70441;44.758;37.686;2024-01-15T00:24:29;7.82;;;2.75;;
78901;SDS011;70441;44.758;37.686;2024-01-15T00:25:31;6.35;;;2.38;;
78901;SDS011;70441;44.758;37.686;2024-01-15T00:26:32;8.73;;;2.30;;
78901;SDS011;70441;44.758;37.686;2024-01-15T00:27:53;8.55;;;3.20;;
78901;SDS011;70441;44.758;37.686;2024-01-15T00:28:55;8.20;;;2.33;;
78901;SDS011;70441;44.758;37.686;2024-01-15T00:29:57;8.20;;;1.95;;
78901;SDS011;70441;44.758;37.686;2024-01-15T00:30:59;7.53;;;2.80;;
78901;SDS011;70441;44.758;37.686;2024-01-15T00:32:01;5.07;;;1.95;;
78901;SDS011;70441;44.758;37.686;2024-01-15T00:33:03;9.38;;;2.03;;
78901;SDS011;70441;44.758;37.686;2024-01-15T00:34:23;5.43;;;1.95;;
78901;SDS011;70441;44.758;37.686;2024-01-15T00:35:24;6.78;;;2.10;;
78901;SDS011;70441;44.758;37.686;2024-01-15T00:36:26;10.57;;;3.30;;
78901;SDS011;70441;44.758;37.686;2024-01-15T00:37:28;7.95;;;1.90;;
78901;SDS011;70441;44.758;37.686;2024-01-15T00:38:29;9.30;;;2.55;;
78901;SDS011;70441;44.758;37.686;2024-01-15T00:41:09;7.18;;;2.30;;
78901;SDS011;70441;44.758;37.686;2024-01-15T00:42:10;9.80;;;2.42;;
78901;SDS011;70441;44.758;37.686;2024-01-15T00:43:11;5.47;;;1.50;;
78901;SDS011;70441;44.758;37.686;2024-01-15T00:45:51;7.22;;;2.10;;
78901;SDS011;70441;44.758;37.686;2024-01-15T00:46:53;8.93;;;2.92;;
78901;SDS011;70441;44.758;37.686;2024-01-15T00:47:54;9.43;;;2.55;;
78901;SDS011;70441;44.758;37.686;2024-01-15T00:48:57;6.80;;;1.88;;
78901;SDS011;70441;44.758;37.686;2024-01-15T00:49:58;6.90;;;2.03;;
78901;SDS011;70441;44.758;37.686;2024-01-15T00:51:00;7.68;;;2.50;;
78901;SDS011;70441;44.758;37.686;2024-01-15T00:52:20;10.50;;;2.63;;
78901;SDS011;70441;44.758;37.686;2024-01-15T00:53:22;8.25;;;2.58;;
78901;SDS011;70441;44.758;37.686;2024-01-15T00:54:23;9.93;;;2.50;;
78901;SDS011;70441;44.758;37.686;2024-01-15T00:55:24;8.57;;;2.20;;
78901;SDS011;70441;44.758;37.686;2024-01-15T00:56:44;7.70;;;1.80;;
78901;SDS011;70441;44.758;37.686;2024-01-15T00:57:46;8.00;;;2.38;;
78901;SDS011;70441;44.758;37.686;2024-01-15T00:58:47;6.57;;;2.50;;
78901;SDS011;70441;44.758;37.686;2024-01-15T00:59:48;7.97;;;2.40;;
78901;SDS011;70441;44.758;37.686;2024-01-15T01:02:28;6.82;;;2.72;;
78901;SDS011;70441;44.758;37.686;2024-01-15T01:03:29;5.93;;;1.90;;
78901;SDS011;70441;44.758;37.686;2024-01-15T01:04:31;5.78;;;1.88;;
78901;SDS011;70441;44.758;37.686;2024-01-15T01:05:33;6.30;;;1.75;;
78901;SDS011;70441;44.758;37.686;2024-01-15T01:07:55;5.45;;;1.60;;
78901;SDS011;70441;44.758;37.686;2024-01-15T01:09:15;6.47;;;1.55;;
78901;SDS011;70441;44.758;37.686;2024-01-15T01:10:16;4.22;;;1.42;;
78901;SDS011;70441;44.758;37.686;2024-01-15T01:11:18;7.53;;;2.10;;
78901;SDS011;70441;44.758;37.686;2024-01-15T01:12:19;5.18;;;1.80;;
78901;SDS011;70441;44.758;37.686;2024-01-15T01:13:21;6.30;;;1.80;;
78901;SDS011;70441;44.758;37.686;2024-01-15T01:14:22;4.90;;;1.30;;
78901;SDS011;70441;44.758;37.686;2024-01-15T01:15:23;3.88;;;1.42;;
78901;SDS011;70441;44.758;37.686;2024-01-15T01:16:43;5.25;;;1.98;;
78901;SDS011;70441;44.758;37.686;2024-01-15T01:17:45;4.28;;;1.30;;
78901;SDS011;70441;44.758;37.686;2024-01-15T01:18:47;7.03;;;1.77;;
78901;SDS011;70441;44.758;37.686;2024-01-15T01:19:49;6.78;;;1.60;;
78901;SDS011;70441;44.758;37.686;2024-01-15T01:20:50;6.45;;;1.75;;
78901;SDS011;70441;44.758;37.686;2024-01-15T01:21:52;3.45;;;1.20;;
78901;SDS011;70441;44.758;37.686;2024-01-15T01:22:55;5.15;;;1.80;;
78901;SDS011;70441;44.758;37.686;2024-01-15T01:23:57;5.93;;;1.40;;
78901;SDS011;70441;44.758;37.686;2024-01-15T01:24:58;6.20;;;1.85;;
78901;SDS011;70441;44.758;37.686;2024-01-15T01:26:00;3.65;;;1.38;;
78901;SDS011;70441;44.758;37.686;2024-01-15T01:27:01;6.80;;;1.90;;
78901;SDS011;70441;44.758;37.686;2024-01-15T01:28:03;5.50;;;1.60;;
78901;SDS011;70441;44.758;37.686;2024-01-15T01:29:05;7.10;;;1.60;;
78901;SDS011;70441;44.758;37.686;2024-01-15T01:30:06;8.35;;;1.80;;
78901;SDS011;70441;44.758;37.686;2024-01-15T01:31:08;6.32;;;1.30;;
78901;SDS011;70441;44.758;37.686;2024-01-15T01:32:10;4.90;;;1.60;;
78901;SDS011;70441;44.758;37.686;2024-01-15T01:33:11;6.13;;;1.70;;
78901;SDS011;70441;44.758;37.686;2024-01-15T01:34:13;8.40;;;1.63;;
78901;SDS011;70441;44.758;37.686;2024-01-15T01:35:16;3.83;;;1.30;;
78901;SDS011;70441;44.758;37.686;2024-01-15T01:36:17;5.07;;;1.45;;
78901;SDS011;70441;44.758;37.686;2024-01-15T01:37:19;3.63;;;1.30;;
78901;SDS011;70441;44.758;37.686;2024-01-15T01:38:20;5.25;;;1.27;;
78901;SDS011;70441;44.758;37.686;2024-01-15T01:39:22;6.50;;;1.58;;
78901;SDS011;70441;44.758;37.686;2024-01-15T01:40:23;5.53;;;1.50;;
78901;SDS011;70441;44.758;37.686;2024-01-15T01:41:43;5.53;;;1.35;;
78901;SDS011;70441;44.758;37.686;2024-01-15T01:43:04;4.72;;;1.50;;
78901;SDS011;70441;44.758;37.686;2024-01-15T01:44:06;5.70;;;1.50;;
78901;SDS011;70441;44.758;37.686;2024-01-15T01:45:08;4.68;;;1.35;;
78901;SDS011;70441;44.758;37.686;2024-01-15T01:46:10;7.63;;;2.00;;
78901;SDS011;70441;44.758;37.686;2024-01-15T01:47:11;4.72;;;1.52;;
78901;SDS011;70441;44.758;37.686;2024-01-15T01:48:14;5.25;;;1.52;;
78901;SDS011;70441;44.758;37.686;2024-01-15T01:49:15;5.47;;;1.75;;
78901;SDS011;70441;44.758;37.686;2024-01-15T01:50:18;4.18;;;1.65;;
78901;SDS011;70441;44.758;37.686;2024-01-15T01:51:19;4.95;;;1.45;;
78901;SDS011;70441;44.758;37.686;2024-01-15T01:52:22;6.53;;;1.50;;
78901;SDS011;70441;44.758;37.686;2024-01-15T01:53:25;7.20;;;1.90;;
78901;SDS011;70441;44.758;37.686;2024-01-15T01:54:28;5.15;;;1.50;;
78901;SDS011;70441;44.758;37.686;2024-01-15T01:55:32;4.45;;;1.73;;
78901;SDS011;70441;44.758;37.686;2024-01-15T01:56:35;4.47;;;1.60;;
78901;SDS011;70441;44.758;37.686;2024-01-15T01:57:36;4.43;;;1.70;;
78901;SDS011;70441;44.758;37.686;2024-01-15T01:58:38;5.65;;;1.70;;
78901;SDS011;70441;44.758;37.686;2024-01-15T01:59:40;5.90;;;1.60;;
78901;SDS011;70441;44.758;37.686;2024-01-15T02:00:42;4.75;;;1.63;;
78901;SDS011;70441;44.758;37.686;2024-01-15T02:02:03;6.55;;;1.70;;
78901;SDS011;70441;44.758;37.686;2024-01-15T02:03:04;7.43;;;1.80;;
78901;SDS011;70441;44.758;37.686;2024-01-15T02:04:06;4.43;;;1.48;;
78901;SDS011;70441;44.758;37.686;2024-01-15T02:05:07;3.75;;;1.35;;
78901;SDS011;70441;44.758;37.686;2024-01-15T02:07:11;5.60;;;1.70;;
78901;SDS011;70441;44.758;37.686;2024-01-15T02:08:13;7.35;;;1.98;;
78901;SDS011;70441;44.758;37.686;2024-01-15T02:09:14;5.65;;;1.60;;
78901;SDS011;70441;44.758;37.686;2024-01-15T02:10:16;6.78;;;1.90;;
78901;SDS011;70441;44.758;37.686;2024-01-15T02:11:17;5.30;;;1.42;;
78901;SDS011;70441;44.758;37.686;2024-01-15T02:12:19;7.40;;;1.58;;
78901;SDS011;70441;44.758;37.686;2024-01-15T02:13:20;6.13;;;1.98;;
78901;SDS011;70441;44.758;37.686;2024-01-15T02:14:21;6.60;;;1.60;;
78901;SDS011;70441;44.758;37.686;2024-01-15T02:15:26;6.00;;;1.77;;
78901;SDS011;70441;44.758;37.686;2024-01-15T02:16:27;4.82;;;1.50;;
78901;SDS011;70441;44.758;37.686;2024-01-15T02:17:29;5.45;;;1.77;;
78901;SDS011;70441;44.758;37.686;2024-01-15T02:18:39;6.30;;;2.03;;
78901;SDS011;70441;44.758;37.686;2024-01-15T02:19:44;6.65;;;1.98;;
78901;SDS011;70441;44.758;37.686;2024-01-15T02:21:04;6.63;;;1.83;;
78901;SDS011;70441;44.758;37.686;2024-01-15T02:22:06;4.40;;;1.60;;
78901;SDS011;70441;44.758;37.686;2024-01-15T02:23:09;4.93;;;1.65;;
78901;SDS011;70441;44.758;37.686;2024-01-15T02:24:11;6.68;;;1.63;;
78901;SDS011;70441;44.758;37.686;2024-01-15T02:25:13;5.75;;;1.70;;
78901;SDS011;70441;44.758;37.686;2024-01-15T02:26:14;4.90;;;1.63;;
78901;SDS011;70441;44.758;37.686;2024-01-15T02:27:16;4.82;;;1.42;;
78901;SDS011;70441;44.758;37.686;2024-01-15T02:28:18;6.50;;;1.73;;
78901;SDS011;70441;44.758;37.686;2024-01-15T02:29:19;5.82;;;1.90;;
78901;SDS011;70441;44.758;37.686;2024-01-15T02:30:40;6.82;;;1.70;;
78901;SDS011;70441;44.758;37.686;2024-01-15T02:31:42;4.28;;;1.48;;
78901;SDS011;70441;44.758;37.686;2024-01-15T02:32:43;7.70;;;1.77;;
78901;SDS011;70441;44.758;37.686;2024-01-15T02:34:04;5.53;;;1.80;;
78901;SDS011;70441;44.758;37.686;2024-01-15T02:35:06;6.20;;;1.85;;
78901;SDS011;70441;44.758;37.686;2024-01-15T02:36:08;5.03;;;1.30;;
78901;SDS011;70441;44.758;37.686;2024-01-15T02:37:10;4.50;;;1.55;;
78901;SDS011;70441;44.758;37.686;2024-01-15T02:38:11;7.05;;;2.03;;
78901;SDS011;70441;44.758;37.686;2024-01-15T02:39:13;5.25;;;1.50;;
78901;SDS011;70441;44.758;37.686;2024-01-15T02:40:14;7.72;;;1.90;;
78901;SDS011;70441;44.758;37.686;2024-01-15T02:41:16;7.57;;;1.90;;
78901;SDS011;70441;44.758;37.686;2024-01-15T02:42:18;4.47;;;1.30;;
78901;SDS011;70441;44.758;37.686;2024-01-15T02:43:20;5.25;;;1.83;;
78901;SDS011;70441;44.758;37.686;2024-01-15T02:44:23;8.23;;;1.98;;
78901;SDS011;70441;44.758;37.686;2024-01-15T02:45:24;5.03;;;1.80;;
78901;SDS011;70441;44.758;37.686;2024-01-15T02:46:26;5.32;;;1.80;;
78901;SDS011;70441;44.758;37.686;2024-01-15T02:47:45;6.13;;;1.52;;
78901;SDS011;70441;44.758;37.686;2024-01-15T02:48:47;5.97;;;2.15;;
78901;SDS011;70441;44.758;37.686;2024-01-15T02:49:48;5.45;;;2.00;;
78901;SDS011;70441;44.758;37.686;2024-01-15T02:50:50;5.88;;;1.77;;
78901;SDS011;70441;44.758;37.686;2024-01-15T02:51:51;7.75;;;2.00;;
78901;SDS011;70441;44.758;37.686;2024-01-15T02:52:52;7.28;;;2.20;;
78901;SDS011;70441;44.758;37.686;2024-01-15T02:54:12;7.32;;;2.08;;
78901;SDS011;70441;44.758;37.686;2024-01-15T02:55:13;5.32;;;1.98;;
78901;SDS011;70441;44.758;37.686;2024-01-15T02:56:15;5.30;;;1.83;;
78901;SDS011;70441;44.758;37.686;2024-01-15T02:57:16;5.38;;;1.70;;
78901;SDS011;70441;44.758;37.686;2024-01-15T02:58:18;5.53;;;2.15;;
78901;SDS011;70441;44.758;37.686;2024-01-15T02:59:19;6.85;;;2.30;;
78901;SDS011;70441;44.758;37.686;2024-01-15T03:00:21;6.47;;;2.25;;
78901;SDS011;70441;44.758;37.686;2024-01-15T03:01:22;6.13;;;1.85;;
78901;SDS011;70441;44.758;37.686;2024-01-15T03:02:23;6.00;;;2.05;;
78901;SDS011;70441;44.758;37.686;2024-01-15T03:03:25;6.18;;;1.98;;
78901;SDS011;70441;44.758;37.686;2024-01-15T03:04:26;6.45;;;2.30;;
78901;SDS011;70441;44.758;37.686;2024-01-15T03:05:28;7.50;;;2.17;;
78901;SDS011;70441;44.758;37.686;2024-01-15T03:06:29;6.88;;;2.20;;
78901;SDS011;70441;44.758;37.686;2024-01-15T03:07:31;7.47;;;2.20;;
78901;SDS011;70441;44.758;37.686;2024-01-15T03:08:32;6.97;;;2.55;;
78901;SDS011;70441;44.758;37.686;2024-01-15T03:09:54;6.20;;;1.90;;
78901;SDS011;70441;44.758;37.686;2024-01-15T03:10:55;6.38;;;1.90;;
78901;SDS011;70441;44.758;37.686;2024-01-15T03:11:57;8.85;;;2.20;;
78901;SDS011;70441;44.758;37.686;2024-01-15T03:12:58;7.05;;;2.00;;
78901;SDS011;70441;44.758;37.686;2024-01-15T03:13:59;6.25;;;2.55;;
78901;SDS011;70441;44.758;37.686;2024-01-15T03:15:01;6.53;;;2.65;;
78901;SDS011;70441;44.758;37.686;2024-01-15T03:16:04;6.72;;;2.42;;
78901;SDS011;70441;44.758;37.686;2024-01-15T03:17:25;9.68;;;2.70;;
78901;SDS011;70441;44.758;37.686;2024-01-15T03:18:28;9.00;;;2.65;;
78901;SDS011;70441;44.758;37.686;2024-01-15T03:19:29;5.53;;;2.17;;
78901;SDS011;70441;44.758;37.686;2024-01-15T03:20:31;9.93;;;2.80;;
78901;SDS011;70441;44.758;37.686;2024-01-15T03:21:32;5.90;;;2.63;;
78901;SDS011;70441;44.758;37.686;2024-01-15T03:22:34;8.25;;;2.70;;
78901;SDS011;70441;44.758;37.686;2024-01-15T03:23:35;7.63;;;2.80;;
78901;SDS011;70441;44.758;37.686;2024-01-15T03:24:36;10.93;;;3.38;;
78901;SDS011;70441;44.758;37.686;2024-01-15T03:25:38;7.43;;;2.95;;
78901;SDS011;70441;44.758;37.686;2024-01-15T03:26:39;8.52;;;2.88;;
78901;SDS011;70441;44.758;37.686;2024-01-15T03:27:41;13.23;;;2.88;;
78901;SDS011;70441;44.758;37.686;2024-01-15T03:29:01;8.00;;;2.95;;
78901;SDS011;70441;44.758;37.686;2024-01-15T03:30:03;7.05;;;3.05;;
78901;SDS011;70441;44.758;37.686;2024-01-15T03:31:04;7.70;;;3.35;;
78901;SDS011;70441;44.758;37.686;2024-01-15T03:32:06;9.95;;;3.05;;
78901;SDS011;70441;44.758;37.686;2024-01-15T03:33:08;15.77;;;9.10;;
78901;SDS011;70441;44.758;37.686;2024-01-15T03:34:09;12.15;;;4.32;;
78901;SDS011;70441;44.758;37.686;2024-01-15T03:35:11;9.15;;;3.47;;
78901;SDS011;70441;44.758;37.686;2024-01-15T03:36:13;7.18;;;3.22;;
78901;SDS011;70441;44.758;37.686;2024-01-15T03:37:14;8.70;;;3.70;;
78901;SDS011;70441;44.758;37.686;2024-01-15T03:38:16;10.90;;;5.13;;
78901;SDS011;70441;44.758;37.686;2024-01-15T03:40:38;10.25;;;4.10;;
78901;SDS011;70441;44.758;37.686;2024-01-15T03:41:40;8.85;;;2.80;;
78901;SDS011;70441;44.758;37.686;2024-01-15T03:42:41;8.95;;;3.08;;
78901;SDS011;70441;44.758;37.686;2024-01-15T03:43:43;11.50;;;7.28;;
78901;SDS011;70441;44.758;37.686;2024-01-15T03:44:45;5.57;;;2.47;;
78901;SDS011;70441;44.758;37.686;2024-01-15T03:45:47;17.08;;;11.88;;
78901;SDS011;70441;44.758;37.686;2024-01-15T03:46:48;10.25;;;6.05;;
78901;SDS011;70441;44.758;37.686;2024-01-15T03:47:50;9.52;;;3.20;;
78901;SDS011;70441;44.758;37.686;2024-01-15T03:48:51;7.97;;;2.90;;
78901;SDS011;70441;44.758;37.686;2024-01-15T03:49:53;9.00;;;2.75;;
78901;SDS011;70441;44.758;37.686;2024-01-15T03:50:55;10.05;;;3.35;;
78901;SDS011;70441;44.758;37.686;2024-01-15T03:51:56;6.65;;;2.45;;
78901;SDS011;70441;44.758;37.686;2024-01-15T03:52:58;8.38;;;3.05;;
78901;SDS011;70441;44.758;37.686;2024-01-15T03:54:00;10.80;;;3.28;;
78901;SDS011;70441;44.758;37.686;2024-01-15T03:55:01;14.80;;;9.02;;
78901;SDS011;70441;44.758;37.686;2024-01-15T03:56:04;17.55;;;11.93;;
78901;SDS011;70441;44.758;37.686;2024-01-15T03:57:06;9.93;;;5.78;;
78901;SDS011;70441;44.758;37.686;2024-01-15T03:58:08;11.38;;;7.45;;
78901;SDS011;70441;44.758;37.686;2024-01-15T03:59:09;21.30;;;14.63;;
78901;SDS011;70441;44.758;37.686;2024-01-15T04:00:11;20.13;;;15.02;;
78901;SDS011;70441;44.758;37.686;2024-01-15T04:01:13;21.55;;;12.50;;
78901;SDS011;70441;44.758;37.686;2024-01-15T04:02:15;14.68;;;11.38;;
78901;SDS011;70441;44.758;37.686;2024-01-15T04:03:17;11.38;;;7.28;;
78901;SDS011;70441;44.758;37.686;2024-01-15T04:04:18;16.35;;;8.45;;
78901;SDS011;70441;44.758;37.686;2024-01-15T04:05:20;11.15;;;6.60;;
78901;SDS011;70441;44.758;37.686;2024-01-15T04:06:22;13.40;;;8.52;;
78901;SDS011;70441;44.758;37.686;2024-01-15T04:07:42;13.02;;;7.10;;
78901;SDS011;70441;44.758;37.686;2024-01-15T04:08:44;11.13;;;4.35;;
78901;SDS011;70441;44.758;37.686;2024-01-15T04:09:45;9.90;;;4.90;;
78901;SDS011;70441;44.758;37.686;2024-01-15T04:10:47;11.25;;;5.88;;
78901;SDS011;70441;44.758;37.686;2024-01-15T04:11:49;12.52;;;5.10;;
78901;SDS011;70441;44.758;37.686;2024-01-15T04:12:50;9.13;;;3.88;;
78901;SDS011;70441;44.758;37.686;2024-01-15T04:13:52;12.23;;;4.78;;
78901;SDS011;70441;44.758;37.686;2024-01-15T04:14:54;10.00;;;3.42;;
78901;SDS011;70441;44.758;37.686;2024-01-15T04:15:55;9.45;;;3.38;;
78901;SDS011;70441;44.758;37.686;2024-01-15T04:16:57;9.32;;;3.15;;
78901;SDS011;70441;44.758;37.686;2024-01-15T04:17:59;10.95;;;3.95;;
78901;SDS011;70441;44.758;37.686;2024-01-15T04:19:02;9.73;;;3.63;;
78901;SDS011;70441;44.758;37.686;2024-01-15T04:20:04;10.77;;;4.22;;
78901;SDS011;70441;44.758;37.686;2024-01-15T04:21:08;9.90;;;3.50;;
78901;SDS011;70441;44.758;37.686;2024-01-15T04:22:10;9.52;;;3.63;;
78901;SDS011;70441;44.758;37.686;2024-01-15T04:23:12;6.85;;;2.35;;
78901;SDS011;70441;44.758;37.686;2024-01-15T04:24:13;6.97;;;2.47;;
78901;SDS011;70441;44.758;37.686;2024-01-15T04:25:15;7.15;;;2.88;;
78901;SDS011;70441;44.758;37.686;2024-01-15T04:26:17;8.57;;;3.55;;
78901;SDS011;70441;44.758;37.686;2024-01-15T04:27:18;6.13;;;2.17;;
78901;SDS011;70441;44.758;37.686;2024-01-15T04:29:40;7.35;;;2.10;;
78901;SDS011;70441;44.758;37.686;2024-01-15T04:30:41;6.28;;;2.10;;
78901;SDS011;70441;44.758;37.686;2024-01-15T04:33:04;5.93;;;2.30;;
78901;SDS011;70441;44.758;37.686;2024-01-15T04:34:05;7.20;;;2.45;;
78901;SDS011;70441;44.758;37.686;2024-01-15T04:35:07;6.05;;;2.20;;
78901;SDS011;70441;44.758;37.686;2024-01-15T04:36:08;8.93;;;2.35;;
78901;SDS011;70441;44.758;37.686;2024-01-15T04:37:28;7.50;;;1.92;;
78901;SDS011;70441;44.758;37.686;2024-01-15T04:38:30;7.28;;;2.30;;
78901;SDS011;70441;44.758;37.686;2024-01-15T04:39:31;6.78;;;2.72;;
78901;SDS011;70441;44.758;37.686;2024-01-15T04:40:33;7.38;;;2.85;;
78901;SDS011;70441;44.758;37.686;2024-01-15T04:41:34;8.82;;;2.95;;
78901;SDS011;70441;44.758;37.686;2024-01-15T04:42:36;11.10;;;2.20;;
78901;SDS011;70441;44.758;37.686;2024-01-15T04:43:37;9.20;;;3.38;;
78901;SDS011;70441;44.758;37.686;2024-01-15T04:44:39;7.65;;;2.72;;
78901;SDS011;70441;44.758;37.686;2024-01-15T04:45:40;14.88;;;3.70;;
78901;SDS011;70441;44.758;37.686;2024-01-15T04:47:00;14.43;;;2.55;;
78901;SDS011;70441;44.758;37.686;2024-01-15T04:48:20;8.05;;;2.80;;
78901;SDS011;70441;44.758;37.686;2024-01-15T04:49:23;9.73;;;2.80;;
78901;SDS011;70441;44.758;37.686;2024-01-15T04:50:28;10.18;;;3.22;;
78901;SDS011;70441;44.758;37.686;2024-01-15T04:51:48;6.65;;;2.92;;
78901;SDS011;70441;44.758;37.686;2024-01-15T04:52:49;13.38;;;3.75;;
78901;SDS011;70441;44.758;37.686;2024-01-15T04:53:51;10.82;;;3.15;;
78901;SDS011;70441;44.758;37.686;2024-01-15T04:54:53;11.70;;;3.15;;
78901;SDS011;70441;44.758;37.686;2024-01-15T04:55:54;6.63;;;2.60;;
78901;SDS011;70441;44.758;37.686;2024-01-15T04:56:56;10.65;;;3.03;;
78901;SDS011;70441;44.758;37.686;2024-01-15T04:59:17;9.80;;;2.78;;
78901;SDS011;70441;44.758;37.686;2024-01-15T05:00:19;8.75;;;3.33;;
78901;SDS011;70441;44.758;37.686;2024-01-15T05:01:39;11.18;;;3.47;;
78901;SDS011;70441;44.758;37.686;2024-01-15T05:02:40;10.02;;;2.75;;
78901;SDS011;70441;44.758;37.686;2024-01-15T05:03:42;10.25;;;2.90;;
78901;SDS011;70441;44.758;37.686;2024-01-15T05:04:44;8.02;;;2.88;;
78901;SDS011;70441;44.758;37.686;2024-01-15T05:05:45;9.90;;;2.42;;
78901;SDS011;70441;44.758;37.686;2024-01-15T05:07:05;10.95;;;3.10;;
78901;SDS011;70441;44.758;37.686;2024-01-15T05:08:07;10.48;;;3.00;;
78901;SDS011;70441;44.758;37.686;2024-01-15T05:09:26;10.00;;;3.25;;
78901;SDS011;70441;44.758;37.686;2024-01-15T05:10:29;10.52;;;3.92;;
78901;SDS011;70441;44.758;37.686;2024-01-15T05:11:49;11.40;;;3.88;;
78901;SDS011;70441;44.758;37.686;2024-01-15T05:12:51;10.75;;;4.15;;
78901;SDS011;70441;44.758;37.686;2024-01-15T05:13:52;13.25;;;3.78;;
78901;SDS011;70441;44.758;37.686;2024-01-15T05:15:12;11.05;;;4.97;;
78901;SDS011;70441;44.758;37.686;2024-01-15T05:16:13;13.90;;;5.30;;
78901;SDS011;70441;44.758;37.686;2024-01-15T05:17:15;11.23;;;4.82;;
78901;SDS011;70441;44.758;37.686;2024-01-15T05:18:17;13.60;;;4.25;;
78901;SDS011;70441;44.758;37.686;2024-01-15T05:19:18;12.43;;;4.30;;
78901;SDS011;70441;44.758;37.686;2024-01-15T05:20:38;15.90;;;5.53;;
78901;SDS011;70441;44.758;37.686;2024-01-15T05:22:59;11.15;;;3.97;;
78901;SDS011;70441;44.758;37.686;2024-01-15T05:24:01;10.40;;;4.32;;
78901;SDS011;70441;44.758;37.686;2024-01-15T05:25:05;12.80;;;4.47;;
78901;SDS011;70441;44.758;37.686;2024-01-15T05:26:10;12.35;;;5.18;;
78901;SDS011;70441;44.758;37.686;2024-01-15T05:27:12;12.88;;;5.10;;
78901;SDS011;70441;44.758;37.686;2024-01-15T05:28:14;13.35;;;4.57;;
78901;SDS011;70441;44.758;37.686;2024-01-15T05:29:15;13.32;;;5.60;;
78901;SDS011;70441;44.758;37.686;2024-01-15T05:30:17;10.55;;;3.60;;
78901;SDS011;70441;44.758;37.686;2024-01-15T05:31:18;12.50;;;4.35;;
78901;SDS011;70441;44.758;37.686;2024-01-15T05:32:20;10.80;;;4.63;;
78901;SDS011;70441;44.758;37.686;2024-01-15T05:33:22;10.38;;;4.43;;
78901;SDS011;70441;44.758;37.686;2024-01-15T05:34:24;15.18;;;5.50;;
78901;SDS011;70441;44.758;37.686;2024-01-15T05:35:26;11.15;;;4.45;;
78901;SDS011;70441;44.758;37.686;2024-01-15T05:36:27;16.60;;;4.25;;
78901;SDS011;70441;44.758;37.686;2024-01-15T05:37:29;19.02;;;6.70;;
78901;SDS011;70441;44.758;37.686;2024-01-15T05:38:48;14.65;;;4.75;;
78901;SDS011;70441;44.758;37.686;2024-01-15T05:39:50;14.65;;;5.57;;
78901;SDS011;70441;44.758;37.686;2024-01-15T05:40:52;11.75;;;5.10;;
78901;SDS011;70441;44.758;37.686;2024-01-15T05:41:53;13.73;;;4.85;;
78901;SDS011;70441;44.758;37.686;2024-01-15T05:42:55;11.80;;;4.20;;
78901;SDS011;70441;44.758;37.686;2024-01-15T05:44:15;24.88;;;10.70;;
78901;SDS011;70441;44.758;37.686;2024-01-15T05:45:16;13.63;;;5.07;;
78901;SDS011;70441;44.758;37.686;2024-01-15T05:46:18;16.38;;;6.82;;
78901;SDS011;70441;44.758;37.686;2024-01-15T05:47:19;19.27;;;8.00;;
78901;SDS011;70441;44.758;37.686;2024-01-15T05:48:21;14.23;;;4.88;;
78901;SDS011;70441;44.758;37.686;2024-01-15T05:49:22;16.02;;;6.13;;
78901;SDS011;70441;44.758;37.686;2024-01-15T05:50:24;18.42;;;8.45;;
78901;SDS011;70441;44.758;37.686;2024-01-15T05:51:25;24.13;;;11.18;;
78901;SDS011;70441;44.758;37.686;2024-01-15T05:52:27;21.73;;;9.60;;
78901;SDS011;70441;44.758;37.686;2024-01-15T05:53:28;33.30;;;19.33;;
78901;SDS011;70441;44.758;37.686;2024-01-15T05:54:30;18.75;;;8.38;;
78901;SDS011;70441;44.758;37.686;2024-01-15T05:55:31;18.95;;;12.30;;
78901;SDS011;70441;44.758;37.686;2024-01-15T05:56:33;21.15;;;11.90;;
78901;SDS011;70441;44.758;37.686;2024-01-15T05:57:34;21.92;;;11.52;;
78901;SDS011;70441;44.758;37.686;2024-01-15T05:58:36;16.83;;;8.95;;
78901;SDS011;70441;44.758;37.686;2024-01-15T05:59:37;19.02;;;9.45;;
78901;SDS011;70441;44.758;37.686;2024-01-15T06:00:39;13.48;;;5.10;;
78901;SDS011;70441;44.758;37.686;2024-01-15T06:01:40;12.68;;;4.10;;
78901;SDS011;70441;44.758;37.686;2024-01-15T06:02:42;19.63;;;7.72;;
78901;SDS011;70441;44.758;37.686;2024-01-15T06:04:02;11.73;;;4.78;;
78901;SDS011;70441;44.758;37.686;2024-01-15T06:05:03;18.77;;;6.00;;
78901;SDS011;70441;44.758;37.686;2024-01-15T06:06:05;14.18;;;4.22;;
78901;SDS011;70441;44.758;37.686;2024-01-15T06:07:06;21.42;;;7.18;;
78901;SDS011;70441;44.758;37.686;2024-01-15T06:08:08;14.68;;;5.72;;
78901;SDS011;70441;44.758;37.686;2024-01-15T06:09:09;25.92;;;10.55;;
78901;SDS011;70441;44.758;37.686;2024-01-15T06:10:11;16.60;;;4.63;;
78901;SDS011;70441;44.758;37.686;2024-01-15T06:11:12;11.77;;;4.82;;
78901;SDS011;70441;44.758;37.686;2024-01-15T06:12:14;12.23;;;4.47;;
78901;SDS011;70441;44.758;37.686;2024-01-15T06:13:15;10.40;;;4.38;;
78901;SDS011;70441;44.758;37.686;2024-01-15T06:14:17;11.57;;;3.97;;
78901;SDS011;70441;44.758;37.686;2024-01-15T06:15:18;14.25;;;4.97;;
78901;SDS011;70441;44.758;37.686;2024-01-15T06:16:38;10.88;;;4.22;;
78901;SDS011;70441;44.758;37.686;2024-01-15T06:17:40;11.40;;;3.88;;
78901;SDS011;70441;44.758;37.686;2024-01-15T06:18:41;10.80;;;4.15;;
78901;SDS011;70441;44.758;37.686;2024-01-15T06:19:43;13.02;;;4.38;;
78901;SDS011;70441;44.758;37.686;2024-01-15T06:21:03;10.35;;;4.88;;
78901;SDS011;70441;44.758;37.686;2024-01-15T06:22:05;11.32;;;4.30;;
78901;SDS011;70441;44.758;37.686;2024-01-15T06:23:07;11.48;;;4.35;;
78901;SDS011;70441;44.758;37.686;2024-01-15T06:24:08;11.38;;;4.43;;
78901;SDS011;70441;44.758;37.686;2024-01-15T06:25:11;10.60;;;3.25;;
78901;SDS011;70441;44.758;37.686;2024-01-15T06:26:12;9.52;;;3.88;;
78901;SDS011;70441;44.758;37.686;2024-01-15T06:27:14;12.65;;;4.28;;
78901;SDS011;70441;44.758;37.686;2024-01-15T06:28:15;12.20;;;4.18;;
78901;SDS011;70441;44.758;37.686;2024-01-15T06:29:16;11.57;;;4.40;;
78901;SDS011;70441;44.758;37.686;2024-01-15T06:30:18;9.05;;;3.70;;